Time;durP1;ratioP1;P1;durP2;ratioP2;P2;SDS_P1;SDS_P2;PMS_P1;PMS_P2;Temp;Humidity;BMP_temperature;BMP_pressure;BME280_temperature;BME280_humidity;BME280_pressure;Samples;Min_cycle;Max_cycle;Signal;HPM_P1;HPM_P2
2023/03/06 00:00:51;;;;;;;;;;;31.20;79.70;;;;;;5045227;28;19969;-65
2023/03/06 00:03:18;;;;;;;;;;;31.30;79.10;;;;;;5043088;28;19970;-68
2023/03/06 00:05:44;;;;;;;;;;;31.40;78.90;;;;;;5043929;28;20816;-62
2023/03/06 00:08:11;;;;;;;;;;;31.60;78.90;;;;;;5043274;28;19982;-67
2023/03/06 00:10:39;;;;;;;;;;;31.70;78.40;;;;;;5044128;28;19920;-69
2023/03/06 00:13:06;;;;;;;;;;;31.90;78.50;;;;;;5042723;28;19909;-73
2023/03/06 00:15:33;;;;;;;;;;;31.90;77.10;;;;;;5043609;28;19912;-61
2023/03/06 00:18:02;;;;;;;;;;;32.10;76.90;;;;;;5043620;28;19909;-63
2023/03/06 00:20:29;;;;;;;;;;;32.10;76.70;;;;;;5045140;28;20255;-65
2023/03/06 00:22:56;;;;;;;;;;;32.10;76.50;;;;;;5043722;28;20297;-66
2023/03/06 00:25:22;;;;;;;;;;;32.10;77.10;;;;;;5044307;28;19908;-69
2023/03/06 00:27:50;;;;;;;;;;;32.30;76.50;;;;;;5044314;28;19932;-63
2023/03/06 00:30:18;;;;;;;;;;;32.30;75.80;;;;;;5043032;28;19909;-74
2023/03/06 00:32:44;;;;;;;;;;;32.40;76.20;;;;;;5044395;28;19933;-65
2023/03/06 00:35:12;;;;;;;;;;;32.50;75.90;;;;;;5042930;28;19908;-78
2023/03/06 00:37:39;;;;;;;;;;;32.60;76.20;;;;;;5043976;28;19925;-69
2023/03/06 00:40:06;;;;;;;;;;;32.60;75.20;;;;;;5042394;28;19913;-66
2023/03/06 00:42:33;;;;;;;;;;;32.70;74.80;;;;;;5044205;28;20012;-63
2023/03/06 00:45:00;;;;;;;;;;;32.80;75.10;;;;;;5043227;28;19944;-62
2023/03/06 00:47:26;;;;;;;;;;;32.80;74.70;;;;;;5043571;28;20373;-65
2023/03/06 00:49:53;;;;;;;;;;;33.00;74.40;;;;;;5043501;28;19994;-76
2023/03/06 00:52:20;;;;;;;;;;;33.10;74.10;;;;;;5042718;28;19917;-65
2023/03/06 00:54:46;;;;;;;;;;;33.10;73.40;;;;;;5043759;28;19913;-69
2023/03/06 00:57:13;;;;;;;;;;;33.30;73.20;;;;;;5042146;28;19913;-64
2023/03/06 00:59:39;;;;;;;;;;;33.30;72.80;;;;;;5043946;28;19993;-72
2023/03/06 01:02:06;;;;;;;;;;;33.40;72.20;;;;;;5042668;28;19921;-64
2023/03/06 01:04:33;;;;;;;;;;;33.40;71.80;;;;;;5044081;28;19916;-64
2023/03/06 01:06:59;;;;;;;;;;;33.50;72.30;;;;;;5042708;28;19921;-66
2023/03/06 01:09:26;;;;;;;;;;;33.60;73.00;;;;;;5043219;28;20297;-76
2023/03/06 01:11:53;;;;;;;;;;;33.70;71.50;;;;;;5043458;28;19909;-65
2023/03/06 01:14:19;;;;;;;;;;;33.80;71.10;;;;;;5041293;28;20008;-72
2023/03/06 01:16:46;;;;;;;;;;;33.90;71.10;;;;;;5042090;28;20330;-65
2023/03/06 01:19:13;;;;;;;;;;;34.00;70.50;;;;;;5041924;28;19913;-74
2023/03/06 01:21:39;;;;;;;;;;;34.10;71.20;;;;;;5042389;28;20392;-74
2023/03/06 01:24:06;;;;;;;;;;;34.30;71.00;;;;;;5042323;28;19920;-71
2023/03/06 01:26:33;;;;;;;;;;;34.40;69.70;;;;;;5042367;28;19927;-68
2023/03/06 01:29:00;;;;;;;;;;;34.40;70.10;;;;;;5040954;28;19919;-67
2023/03/06 01:31:26;;;;;;;;;;;34.60;70.20;;;;;;5040785;28;19995;-67
2023/03/06 01:33:53;;;;;;;;;;;34.70;69.10;;;;;;5042584;28;20020;-69
2023/03/06 01:36:20;;;;;;;;;;;34.70;69.00;;;;;;5041876;28;19908;-63
2023/03/06 01:38:46;;;;;;;;;;;34.80;70.30;;;;;;5043217;28;19955;-73
2023/03/06 01:41:16;;;;;;;;;;;34.90;69.00;;;;;;5041466;28;20281;-72
2023/03/06 01:43:44;;;;;;;;;;;35.10;69.00;;;;;;5041613;28;19938;-62
2023/03/06 01:46:14;;;;;;;;;;;35.20;68.50;;;;;;5041219;28;19977;-65
2023/03/06 01:48:40;;;;;;;;;;;35.30;68.60;;;;;;5043588;28;20362;-72
2023/03/06 01:51:07;;;;;;;;;;;35.40;68.60;;;;;;5041229;28;19913;-72
2023/03/06 01:53:34;;;;;;;;;;;35.50;67.90;;;;;;5039576;28;20339;-77
2023/03/06 01:56:00;;;;;;;;;;;35.50;68.00;;;;;;5042492;28;20277;-71
2023/03/06 01:58:27;;;;;;;;;;;35.50;67.80;;;;;;5042416;28;19909;-67
2023/03/06 02:00:54;;;;;;;;;;;35.60;66.80;;;;;;5043719;28;19993;-65
2023/03/06 02:03:25;;;;;;;;;;;35.80;67.00;;;;;;5041278;28;19909;-72
2023/03/06 02:05:53;;;;;;;;;;;35.90;65.80;;;;;;5041534;28;20409;-66
2023/03/06 02:08:21;;;;;;;;;;;36.00;64.70;;;;;;5040481;28;19928;-66
2023/03/06 02:11:01;;;;;;;;;;;36.00;63.70;;;;;;5041955;28;20253;-66
2023/03/06 02:13:28;;;;;;;;;;;36.10;62.80;;;;;;5040191;28;19913;-67
2023/03/06 02:15:55;;;;;;;;;;;36.30;62.70;;;;;;5041646;28;20634;-74
2023/03/06 02:18:22;;;;;;;;;;;36.50;62.90;;;;;;5056462;28;19977;-69
2023/03/06 02:20:51;;;;;;;;;;;36.50;62.10;;;;;;5041514;28;20318;-74
2023/03/06 02:23:28;;;;;;;;;;;36.70;62.00;;;;;;5041024;28;19942;-63
2023/03/06 02:25:56;;;;;;;;;;;36.80;61.20;;;;;;5041842;28;19916;-70
2023/03/06 02:28:23;;;;;;;;;;;37.10;61.60;;;;;;5040810;28;19921;-64
2023/03/06 02:30:51;;;;;;;;;;;37.20;60.80;;;;;;5043091;28;19909;-67
2023/03/06 02:33:18;;;;;;;;;;;37.20;61.00;;;;;;5041221;28;20015;-67
2023/03/06 02:36:05;;;;;;;;;;;37.50;61.30;;;;;;5041440;28;19924;-65
2023/03/06 02:38:36;;;;;;;;;;;37.60;61.20;;;;;;5041865;28;19966;-65
2023/03/06 02:41:06;;;;;;;;;;;37.60;60.20;;;;;;5046456;28;19989;-66
2023/03/06 02:43:34;;;;;;;;;;;37.60;60.30;;;;;;5046422;28;19916;-65
2023/03/06 02:46:01;;;;;;;;;;;37.60;60.20;;;;;;5045523;28;20278;-60
2023/03/06 02:48:27;;;;;;;;;;;37.80;60.60;;;;;;5059856;28;19932;-64
2023/03/06 02:50:54;;;;;;;;;;;37.70;59.20;;;;;;5046594;28;19919;-70
2023/03/06 02:53:21;;;;;;;;;;;37.90;59.20;;;;;;5045985;28;19909;-72
2023/03/06 02:55:49;;;;;;;;;;;38.00;59.20;;;;;;5044856;28;20348;-71
2023/03/06 02:58:20;;;;;;;;;;;38.50;60.00;;;;;;5046086;28;19962;-68
2023/03/06 03:00:47;;;;;;;;;;;38.90;58.30;;;;;;5060221;28;20002;-72
2023/03/06 03:03:14;;;;;;;;;;;39.10;57.30;;;;;;5045025;28;19913;-64
2023/03/06 03:05:41;;;;;;;;;;;39.50;58.00;;;;;;5043939;28;19913;-74
2023/03/06 03:08:07;;;;;;;;;;;40.20;56.30;;;;;;5046739;28;19917;-69
2023/03/06 03:10:34;;;;;;;;;;;40.80;55.90;;;;;;5043608;28;19956;-65
2023/03/06 03:13:01;;;;;;;;;;;41.40;55.80;;;;;;5041050;28;20015;-63
2023/03/06 03:15:27;;;;;;;;;;;41.80;53.90;;;;;;5044202;28;19931;-73
2023/03/06 03:17:54;;;;;;;;;;;42.10;54.20;;;;;;5045251;28;19908;-66
2023/03/06 03:20:21;;;;;;;;;;;42.60;53.40;;;;;;5044724;28;20290;-69
2023/03/06 03:22:49;;;;;;;;;;;42.80;53.70;;;;;;5044625;28;19920;-71
2023/03/06 03:25:15;;;;;;;;;;;43.40;51.70;;;;;;5043978;28;19946;-69
2023/03/06 03:27:42;;;;;;;;;;;43.50;51.30;;;;;;5044422;28;19920;-67
2023/03/06 03:30:09;;;;;;;;;;;43.80;50.90;;;;;;5045945;28;19962;-73
2023/03/06 03:32:36;;;;;;;;;;;44.90;51.10;;;;;;5043692;28;19936;-71
2023/03/06 03:35:03;;;;;;;;;;;45.80;49.80;;;;;;5044588;28;19965;-71
2023/03/06 03:37:30;;;;;;;;;;;45.90;49.40;;;;;;5043147;28;19951;-65
2023/03/06 03:39:57;;;;;;;;;;;46.30;48.50;;;;;;5044179;28;19924;-69
2023/03/06 03:42:24;;;;;;;;;;;46.40;48.20;;;;;;5076142;28;19917;-67
2023/03/06 03:44:50;;;;;;;;;;;45.90;48.00;;;;;;5043881;28;19913;-74
2023/03/06 03:47:17;;;;;;;;;;;45.10;48.20;;;;;;5044559;28;19920;-70
2023/03/06 03:49:43;;;;;;;;;;;45.00;48.20;;;;;;5042769;28;19948;-72
2023/03/06 03:52:10;;;;;;;;;;;45.00;48.40;;;;;;5044992;28;19931;-72
2023/03/06 03:54:37;;;;;;;;;;;45.50;47.60;;;;;;5043427;28;19913;-66
2023/03/06 03:57:03;;;;;;;;;;;46.40;47.20;;;;;;5045869;28;20092;-70
2023/03/06 03:59:30;;;;;;;;;;;46.60;47.50;;;;;;5044617;28;19974;-76
2023/03/06 04:01:58;;;;;;;;;;;46.90;47.00;;;;;;5044667;28;20004;-70
2023/03/06 04:04:24;;;;;;;;;;;46.90;46.00;;;;;;5044000;28;19912;-67
2023/03/06 04:06:51;;;;;;;;;;;46.60;46.00;;;;;;5043603;28;19987;-67
2023/03/06 04:09:18;;;;;;;;;;;46.50;46.00;;;;;;5045070;28;20422;-67
2023/03/06 04:11:44;;;;;;;;;;;46.10;46.00;;;;;;5043713;28;19962;-74
2023/03/06 04:14:11;;;;;;;;;;;45.30;46.60;;;;;;5045002;28;20349;-76
2023/03/06 04:16:37;;;;;;;;;;;45.30;47.00;;;;;;5042893;28;19909;-70
2023/03/06 04:19:04;;;;;;;;;;;44.50;47.50;;;;;;5044219;28;20362;-79
2023/03/06 04:21:31;;;;;;;;;;;44.50;47.20;;;;;;5044169;28;20365;-67
2023/03/06 04:23:57;;;;;;;;;;;43.30;47.30;;;;;;5043271;28;19916;-81
2023/03/06 04:26:24;;;;;;;;;;;42.00;48.60;;;;;;5040528;28;19970;-76
2023/03/06 04:28:50;;;;;;;;;;;41.20;49.20;;;;;;5043599;28;19913;-78
2023/03/06 04:31:17;;;;;;;;;;;41.40;49.20;;;;;;5045187;28;19924;-77
2023/03/06 04:33:44;;;;;;;;;;;41.90;48.60;;;;;;5043213;28;19948;-66
2023/03/06 04:36:16;;;;;;;;;;;41.80;48.70;;;;;;5043964;28;19912;-66
2023/03/06 04:38:42;;;;;;;;;;;41.90;48.50;;;;;;5042189;28;19932;-66
2023/03/06 04:41:09;;;;;;;;;;;42.80;48.00;;;;;;5045036;28;20340;-68
2023/03/06 04:43:38;;;;;;;;;;;44.40;47.10;;;;;;5044303;28;19970;-66
2023/03/06 04:46:04;;;;;;;;;;;45.60;46.90;;;;;;5044044;28;20071;-74
2023/03/06 04:48:31;;;;;;;;;;;46.30;45.20;;;;;;5043522;28;19928;-73
2023/03/06 04:50:58;;;;;;;;;;;46.70;43.80;;;;;;5040240;28;19909;-72
2023/03/06 04:53:25;;;;;;;;;;;46.70;44.40;;;;;;5043670;28;19909;-74
2023/03/06 04:55:52;;;;;;;;;;;46.90;43.60;;;;;;5042071;28;19916;-72
2023/03/06 04:58:19;;;;;;;;;;;47.20;42.40;;;;;;5040418;28;20612;-72
2023/03/06 05:00:46;;;;;;;;;;;47.10;42.20;;;;;;5040666;28;19955;-66
2023/03/06 05:03:13;;;;;;;;;;;47.20;42.80;;;;;;5041454;28;19913;-64
2023/03/06 05:05:40;;;;;;;;;;;47.60;42.70;;;;;;5042109;28;20576;-65
2023/03/06 05:08:06;;;;;;;;;;;48.40;41.80;;;;;;5042993;28;19974;-64
2023/03/06 05:10:33;;;;;;;;;;;49.20;43.00;;;;;;5041730;28;19935;-66
2023/03/06 05:13:00;;;;;;;;;;;49.90;40.70;;;;;;5057023;28;19947;-66
2023/03/06 05:15:27;;;;;;;;;;;49.30;40.10;;;;;;5042954;28;19917;-64
2023/03/06 05:17:55;;;;;;;;;;;47.40;40.70;;;;;;5041832;28;19913;-75
2023/03/06 05:20:21;;;;;;;;;;;45.50;41.50;;;;;;5042348;28;19916;-77
2023/03/06 05:22:48;;;;;;;;;;;44.50;42.40;;;;;;5041747;28;19917;-65
2023/03/06 05:25:15;;;;;;;;;;;45.40;42.90;;;;;;5042412;28;19967;-64
2023/03/06 05:27:41;;;;;;;;;;;46.30;41.60;;;;;;5041306;28;19978;-66
2023/03/06 05:30:10;;;;;;;;;;;46.00;43.00;;;;;;5041334;28;19916;-68
2023/03/06 05:32:37;;;;;;;;;;;46.40;41.50;;;;;;5042671;28;19913;-71
2023/03/06 05:35:04;;;;;;;;;;;47.40;42.00;;;;;;5041332;28;19967;-74
2023/03/06 05:37:31;;;;;;;;;;;47.30;40.50;;;;;;5043115;28;20394;-73
2023/03/06 05:39:58;;;;;;;;;;;46.40;41.00;;;;;;5041721;28;19917;-65
2023/03/06 05:42:26;;;;;;;;;;;46.00;40.40;;;;;;5042044;28;19966;-76
2023/03/06 05:44:52;;;;;;;;;;;46.50;41.30;;;;;;5041026;28;20013;-65
2023/03/06 05:47:19;;;;;;;;;;;46.90;40.90;;;;;;5042996;28;19921;-71
2023/03/06 05:49:45;;;;;;;;;;;46.60;40.90;;;;;;5042192;28;19919;-67
2023/03/06 05:52:12;;;;;;;;;;;46.10;40.90;;;;;;5041687;28;19939;-67
2023/03/06 05:54:39;;;;;;;;;;;45.90;40.90;;;;;;5041311;28;19959;-73
2023/03/06 05:57:06;;;;;;;;;;;46.70;40.80;;;;;;5041812;28;19958;-77
2023/03/06 05:59:32;;;;;;;;;;;47.40;40.90;;;;;;5042869;28;19913;-75
2023/03/06 06:02:00;;;;;;;;;;;48.20;40.30;;;;;;5040811;28;19908;-74
2023/03/06 06:04:26;;;;;;;;;;;49.30;39.50;;;;;;5041201;28;19913;-67
2023/03/06 06:06:54;;;;;;;;;;;49.90;39.50;;;;;;5041560;28;19928;-70
2023/03/06 06:09:23;;;;;;;;;;;50.00;39.00;;;;;;5041557;28;19959;-64
2023/03/06 06:11:53;;;;;;;;;;;50.00;38.80;;;;;;5041000;28;20428;-64
2023/03/06 06:14:20;;;;;;;;;;;49.70;38.80;;;;;;5038371;28;19912;-65
2023/03/06 06:16:47;;;;;;;;;;;49.60;38.90;;;;;;5040554;28;19913;-65
2023/03/06 06:19:22;;;;;;;;;;;49.10;38.00;;;;;;5040881;28;20000;-63
2023/03/06 06:21:50;;;;;;;;;;;48.40;38.70;;;;;;5042129;28;19916;-68
2023/03/06 06:24:18;;;;;;;;;;;48.00;39.10;;;;;;5041895;28;19917;-71
2023/03/06 06:26:44;;;;;;;;;;;48.40;39.00;;;;;;5042303;28;19928;-65
2023/03/06 06:29:12;;;;;;;;;;;48.70;38.80;;;;;;5041447;28;19936;-67
2023/03/06 06:31:38;;;;;;;;;;;48.90;38.60;;;;;;5042837;28;19927;-66
2023/03/06 06:34:06;;;;;;;;;;;48.30;38.60;;;;;;5039482;28;19920;-63
2023/03/06 06:36:33;;;;;;;;;;;48.60;39.10;;;;;;5042970;28;20263;-66
2023/03/06 06:38:59;;;;;;;;;;;48.90;39.10;;;;;;5041450;28;19991;-65
2023/03/06 06:41:26;;;;;;;;;;;49.30;38.70;;;;;;5042514;28;19920;-70
2023/03/06 06:43:53;;;;;;;;;;;49.40;38.50;;;;;;5042412;28;19994;-73
2023/03/06 06:46:20;;;;;;;;;;;48.50;38.40;;;;;;5041648;28;19995;-73
2023/03/06 06:48:55;;;;;;;;;;;47.80;39.40;;;;;;5042081;28;19909;-64
2023/03/06 06:51:22;;;;;;;;;;;47.20;39.20;;;;;;5041322;28;19916;-63
2023/03/06 06:53:52;;;;;;;;;;;46.90;39.50;;;;;;5042018;28;19919;-66
2023/03/06 06:56:18;;;;;;;;;;;46.90;39.80;;;;;;5041724;28;20374;-63
2023/03/06 06:58:45;;;;;;;;;;;47.60;39.20;;;;;;5042807;28;19960;-70
2023/03/06 07:01:12;;;;;;;;;;;47.90;39.40;;;;;;5041151;28;20349;-68
2023/03/06 07:03:40;;;;;;;;;;;48.00;39.40;;;;;;5042044;28;19920;-70
2023/03/06 07:06:07;;;;;;;;;;;48.30;39.30;;;;;;5041220;28;19920;-68
2023/03/06 07:08:34;;;;;;;;;;;48.60;39.10;;;;;;5041673;28;20048;-69
2023/03/06 07:11:05;;;;;;;;;;;48.80;38.50;;;;;;5041060;28;20390;-66
2023/03/06 07:13:32;;;;;;;;;;;48.70;38.50;;;;;;5041800;28;20327;-66
2023/03/06 07:15:58;;;;;;;;;;;48.50;38.50;;;;;;5041813;28;19913;-69
2023/03/06 07:18:25;;;;;;;;;;;48.40;38.80;;;;;;5041094;28;19967;-65
2023/03/06 07:20:56;;;;;;;;;;;48.20;38.40;;;;;;5041775;28;19916;-65
2023/03/06 07:23:22;;;;;;;;;;;48.10;38.70;;;;;;5041800;28;20309;-66
2023/03/06 07:25:49;;;;;;;;;;;47.80;43.60;;;;;;5043096;28;19913;-75
2023/03/06 07:28:16;;;;;;;;;;;46.60;45.10;;;;;;5044867;28;19909;-63
2023/03/06 07:30:42;;;;;;;;;;;45.30;46.40;;;;;;5045215;28;20010;-73
2023/03/06 07:33:09;;;;;;;;;;;44.30;47.10;;;;;;5044572;28;20372;-65
2023/03/06 07:35:36;;;;;;;;;;;43.30;48.10;;;;;;5045704;28;19969;-65
2023/03/06 07:38:02;;;;;;;;;;;42.10;48.80;;;;;;5045277;28;19928;-64
2023/03/06 07:40:29;;;;;;;;;;;41.10;50.20;;;;;;5043918;28;19927;-67
2023/03/06 07:42:56;;;;;;;;;;;40.30;51.00;;;;;;5043821;28;19908;-69
2023/03/06 07:45:23;;;;;;;;;;;39.50;51.70;;;;;;5044829;28;19919;-74
2023/03/06 07:47:50;;;;;;;;;;;38.80;52.80;;;;;;5046190;28;19915;-71
2023/03/06 07:50:17;;;;;;;;;;;38.30;53.50;;;;;;5044154;28;19913;-71
2023/03/06 07:52:44;;;;;;;;;;;37.70;53.90;;;;;;5041308;28;19978;-72
2023/03/06 07:55:10;;;;;;;;;;;37.40;54.20;;;;;;5044591;28;19939;-67
2023/03/06 07:57:37;;;;;;;;;;;37.10;54.50;;;;;;5045281;28;19917;-74
2023/03/06 08:00:05;;;;;;;;;;;36.80;54.60;;;;;;5045172;28;19912;-67
2023/03/06 08:02:32;;;;;;;;;;;36.50;55.50;;;;;;5044265;28;20436;-71
2023/03/06 08:04:58;;;;;;;;;;;36.10;56.20;;;;;;5045235;28;19912;-72
2023/03/06 08:07:25;;;;;;;;;;;35.80;57.10;;;;;;5044445;28;19923;-63
2023/03/06 08:09:52;;;;;;;;;;;35.40;58.00;;;;;;5044676;28;19917;-76
2023/03/06 08:12:18;;;;;;;;;;;35.20;58.20;;;;;;5043059;28;19908;-72
2023/03/06 08:14:45;;;;;;;;;;;35.00;58.70;;;;;;5045035;28;20423;-65
2023/03/06 08:17:12;;;;;;;;;;;34.90;59.70;;;;;;5044896;28;19917;-66
2023/03/06 08:19:38;;;;;;;;;;;34.70;60.10;;;;;;5043602;28;20324;-76
2023/03/06 08:22:05;;;;;;;;;;;34.50;60.70;;;;;;5044565;28;19919;-73
2023/03/06 08:24:32;;;;;;;;;;;34.30;60.90;;;;;;5043522;28;19920;-68
2023/03/06 08:26:59;;;;;;;;;;;34.10;61.20;;;;;;5045624;28;19909;-66
2023/03/06 08:29:26;;;;;;;;;;;33.90;61.80;;;;;;5043895;28;20000;-72
2023/03/06 08:31:53;;;;;;;;;;;33.80;62.40;;;;;;5044668;28;19920;-71
2023/03/06 08:34:21;;;;;;;;;;;33.70;62.60;;;;;;5043911;28;19908;-65
2023/03/06 08:36:47;;;;;;;;;;;33.50;63.20;;;;;;5043843;28;19921;-66
2023/03/06 08:39:14;;;;;;;;;;;33.40;63.40;;;;;;5042509;28;19921;-65
2023/03/06 08:41:41;;;;;;;;;;;33.30;63.50;;;;;;5041148;28;19981;-65
2023/03/06 08:44:08;;;;;;;;;;;33.20;64.20;;;;;;5042530;28;19939;-76
2023/03/06 08:46:35;;;;;;;;;;;33.10;64.60;;;;;;5041586;28;19912;-68
2023/03/06 08:49:02;;;;;;;;;;;33.00;64.90;;;;;;5044056;28;19916;-75
2023/03/06 08:51:28;;;;;;;;;;;32.90;65.80;;;;;;5043643;28;20340;-78
2023/03/06 08:53:56;;;;;;;;;;;32.90;66.00;;;;;;5043123;28;19912;-66
2023/03/06 08:56:26;;;;;;;;;;;32.70;67.10;;;;;;5042611;28;19913;-64
2023/03/06 08:58:54;;;;;;;;;;;32.60;67.10;;;;;;5042142;28;20318;-65
2023/03/06 09:01:25;;;;;;;;;;;32.50;68.40;;;;;;5042399;28;20370;-74
2023/03/06 09:03:55;;;;;;;;;;;32.40;69.20;;;;;;5042177;28;19908;-70
2023/03/06 09:06:23;;;;;;;;;;;32.30;68.90;;;;;;5042548;28;19990;-66
2023/03/06 09:08:53;;;;;;;;;;;32.20;69.80;;;;;;5041627;28;19913;-73
2023/03/06 09:11:20;;;;;;;;;;;32.10;70.40;;;;;;5042720;28;19921;-71
2023/03/06 09:13:47;;;;;;;;;;;31.90;69.90;;;;;;5040737;28;20781;-63
2023/03/06 09:16:13;;;;;;;;;;;31.80;71.00;;;;;;5040629;28;20382;-64
2023/03/06 09:18:40;;;;;;;;;;;31.70;71.80;;;;;;5042556;28;19944;-66
2023/03/06 09:21:08;;;;;;;;;;;31.60;71.90;;;;;;5040680;28;19917;-66
2023/03/06 09:23:35;;;;;;;;;;;31.50;72.10;;;;;;5042065;28;19982;-69
2023/03/06 09:26:02;;;;;;;;;;;31.50;72.90;;;;;;5042514;28;19912;-67
2023/03/06 09:28:29;;;;;;;;;;;31.40;73.30;;;;;;5040918;28;19920;-65
2023/03/06 09:30:55;;;;;;;;;;;31.30;72.20;;;;;;5041343;28;19920;-74
2023/03/06 09:33:22;;;;;;;;;;;31.30;72.90;;;;;;5041935;28;19913;-66
2023/03/06 09:35:51;;;;;;;;;;;31.20;73.80;;;;;;5041055;28;19913;-70
2023/03/06 09:38:18;;;;;;;;;;;31.20;74.70;;;;;;5042044;28;19921;-77
2023/03/06 09:40:57;;;;;;;;;;;31.20;75.10;;;;;;5040702;28;19913;-71
2023/03/06 09:43:39;;;;;;;;;;;31.10;75.80;;;;;;5041800;28;19958;-72
2023/03/06 09:46:18;;;;;;;;;;;31.10;76.50;;;;;;5040905;28;19924;-71
2023/03/06 09:49:09;;;;;;;;;;;31.00;77.30;;;;;;5041725;28;20297;-72
2023/03/06 09:51:42;;;;;;;;;;;30.90;78.00;;;;;;5042305;28;19923;-71
2023/03/06 09:54:13;;;;;;;;;;;30.90;78.60;;;;;;5042608;28;19966;-73
2023/03/06 09:56:43;;;;;;;;;;;30.80;79.60;;;;;;5043142;28;19909;-64
2023/03/06 09:59:12;;;;;;;;;;;30.60;78.90;;;;;;5043308;28;19970;-73
2023/03/06 10:01:43;;;;;;;;;;;30.40;79.70;;;;;;5042492;28;20265;-71
2023/03/06 10:04:28;;;;;;;;;;;30.30;80.60;;;;;;5042505;28;20040;-70
2023/03/06 10:06:58;;;;;;;;;;;30.20;81.40;;;;;;5041915;28;20027;-74
2023/03/06 10:09:34;;;;;;;;;;;30.10;81.90;;;;;;5043037;28;19925;-64
2023/03/06 10:12:05;;;;;;;;;;;30.10;82.50;;;;;;5042080;28;19915;-71
2023/03/06 10:14:37;;;;;;;;;;;30.10;83.40;;;;;;5042881;28;20327;-65
2023/03/06 10:17:05;;;;;;;;;;;30.00;84.00;;;;;;5040362;28;19956;-65
2023/03/06 10:19:36;;;;;;;;;;;30.00;83.90;;;;;;5042223;28;19912;-63
2023/03/06 10:22:06;;;;;;;;;;;29.90;84.80;;;;;;5042709;28;19999;-64
2023/03/06 10:24:35;;;;;;;;;;;29.80;85.70;;;;;;5042006;28;19959;-68
2023/03/06 10:27:22;;;;;;;;;;;29.80;86.50;;;;;;5041899;28;19909;-65
2023/03/06 10:30:20;;;;;;;;;;;29.60;86.60;;;;;;5042045;28;19974;-67
2023/03/06 10:32:47;;;;;;;;;;;29.50;87.90;;;;;;5051390;28;19919;-65
2023/03/06 10:35:16;;;;;;;;;;;29.40;88.50;;;;;;5040227;28;19913;-67
2023/03/06 10:37:43;;;;;;;;;;;29.30;89.50;;;;;;5041587;28;19927;-71
2023/03/06 10:40:18;;;;;;;;;;;29.20;90.20;;;;;;5041402;28;19916;-67
2023/03/06 10:42:45;;;;;;;;;;;29.20;90.70;;;;;;5042289;28;19912;-67
2023/03/06 10:45:15;;;;;;;;;;;29.30;91.60;;;;;;5042162;28;19916;-62
2023/03/06 10:47:43;;;;;;;;;;;29.30;91.60;;;;;;5042465;28;20362;-64
2023/03/06 10:50:26;;;;;;;;;;;29.30;91.60;;;;;;5042298;28;19909;-62
2023/03/06 10:53:13;;;;;;;;;;;29.20;91.80;;;;;;5041535;28;19928;-62
2023/03/06 10:55:39;;;;;;;;;;;29.20;92.30;;;;;;5035859;28;20508;-64
2023/03/06 10:58:21;;;;;;;;;;;29.20;92.60;;;;;;5042269;28;19956;-63
2023/03/06 11:00:59;;;;;;;;;;;29.20;92.90;;;;;;5042533;28;19909;-70
2023/03/06 11:03:26;;;;;;;;;;;29.20;93.20;;;;;;5045966;28;20281;-66
2023/03/06 11:05:55;;;;;;;;;;;29.10;93.60;;;;;;5045819;28;19935;-63
2023/03/06 11:08:22;;;;;;;;;;;29.10;93.90;;;;;;5046710;28;19909;-63
2023/03/06 11:10:56;;;;;;;;;;;29.10;94.40;;;;;;5046062;28;19996;-67
2023/03/06 11:13:24;;;;;;;;;;;29.00;94.90;;;;;;5046542;28;19920;-67
2023/03/06 11:15:59;;;;;;;;;;;28.90;95.50;;;;;;5046668;28;19931;-71
2023/03/06 11:18:29;;;;;;;;;;;28.90;95.90;;;;;;5046855;28;19917;-63
2023/03/06 11:20:56;;;;;;;;;;;28.70;96.10;;;;;;5046136;28;19975;-65
2023/03/06 11:23:23;;;;;;;;;;;28.60;95.90;;;;;;5046200;28;19919;-72
2023/03/06 11:26:08;;;;;;;;;;;28.50;96.00;;;;;;5045406;28;20389;-64
2023/03/06 11:28:54;;;;;;;;;;;28.40;96.10;;;;;;5045115;28;19908;-63
2023/03/06 11:31:43;;;;;;;;;;;28.20;96.10;;;;;;5044335;28;19962;-64
2023/03/06 11:34:18;;;;;;;;;;;28.10;96.30;;;;;;5044858;28;19920;-63
2023/03/06 11:36:52;;;;;;;;;;;28.00;96.80;;;;;;5046035;28;20354;-72
2023/03/06 11:39:25;;;;;;;;;;;28.00;97.30;;;;;;5045060;28;19921;-67
2023/03/06 11:42:10;;;;;;;;;;;27.90;98.40;;;;;;5046307;28;19919;-62
2023/03/06 11:44:43;;;;;;;;;;;27.90;99.90;;;;;;5045289;28;19913;-67
2023/03/06 11:47:21;;;;;;;;;;;27.80;99.90;;;;;;5043954;28;19912;-62
2023/03/06 11:49:52;;;;;;;;;;;27.80;99.90;;;;;;5046207;28;20222;-64
2023/03/06 11:52:23;;;;;;;;;;;27.70;99.90;;;;;;5044626;28;19913;-66
2023/03/06 11:54:53;;;;;;;;;;;27.50;99.90;;;;;;5045613;28;19909;-64
2023/03/06 11:57:22;;;;;;;;;;;27.50;99.90;;;;;;5044712;28;19921;-67
2023/03/06 12:00:04;;;;;;;;;;;27.40;99.90;;;;;;5045715;28;19928;-68
2023/03/06 12:02:48;;;;;;;;;;;27.20;99.90;;;;;;5045544;28;20258;-66
2023/03/06 12:05:28;;;;;;;;;;;27.10;99.90;;;;;;5044630;28;19909;-64
2023/03/06 12:08:07;;;;;;;;;;;27.00;99.90;;;;;;5045522;28;19947;-65
2023/03/06 12:10:37;;;;;;;;;;;26.90;99.90;;;;;;5045598;28;20285;-63
2023/03/06 12:13:15;;;;;;;;;;;26.90;99.90;;;;;;5044157;28;19912;-65
2023/03/06 12:15:42;;;;;;;;;;;26.80;99.90;;;;;;5045664;28;19920;-65
2023/03/06 12:18:21;;;;;;;;;;;26.70;99.90;;;;;;5044553;28;20026;-65
2023/03/06 12:20:47;;;;;;;;;;;26.60;99.90;;;;;;5045734;28;20007;-65
2023/03/06 12:23:32;;;;;;;;;;;26.60;99.90;;;;;;5043623;28;20370;-67
2023/03/06 12:26:11;;;;;;;;;;;26.50;99.90;;;;;;5045123;28;19965;-70
2023/03/06 12:29:00;;;;;;;;;;;26.40;99.90;;;;;;5045326;28;19912;-64
2023/03/06 12:31:30;;;;;;;;;;;26.30;99.90;;;;;;5043202;28;20380;-68
2023/03/06 12:34:05;;;;;;;;;;;26.30;99.90;;;;;;5044519;28;19917;-61
2023/03/06 12:36:39;;;;;;;;;;;26.30;99.90;;;;;;5044443;28;19920;-70
2023/03/06 12:39:09;;;;;;;;;;;26.20;99.90;;;;;;5044774;28;19963;-63
2023/03/06 12:41:53;;;;;;;;;;;26.20;99.90;;;;;;5044714;28;20015;-69
2023/03/06 12:44:20;;;;;;;;;;;26.20;99.90;;;;;;5036357;28;20409;-67
2023/03/06 12:46:51;;;;;;;;;;;26.10;99.90;;;;;;5044417;28;19955;-63
2023/03/06 12:49:27;;;;;;;;;;;26.00;99.90;;;;;;5043664;28;20381;-65
2023/03/06 12:51:55;;;;;;;;;;;25.90;99.90;;;;;;5045020;28;20281;-63
2023/03/06 12:54:27;;;;;;;;;;;25.90;99.90;;;;;;5044403;28;19912;-65
2023/03/06 12:56:55;;;;;;;;;;;25.90;99.90;;;;;;5044751;28;19917;-67
2023/03/06 12:59:42;;;;;;;;;;;25.80;99.90;;;;;;5044191;28;19954;-66
2023/03/06 13:02:27;;;;;;;;;;;25.80;99.90;;;;;;5044342;28;19970;-61
2023/03/06 13:05:14;;;;;;;;;;;25.70;99.90;;;;;;5037466;28;19913;-66
2023/03/06 13:07:51;;;;;;;;;;;25.70;99.90;;;;;;5043488;28;19913;-60
2023/03/06 13:10:23;;;;;;;;;;;25.70;99.90;;;;;;5023903;28;20362;-64
2023/03/06 13:12:53;;;;;;;;;;;25.70;99.90;;;;;;5032708;28;19917;-62
2023/03/06 13:15:39;;;;;;;;;;;25.60;99.90;;;;;;5043727;28;20416;-63
2023/03/06 13:18:20;;;;;;;;;;;25.60;99.90;;;;;;5044059;28;19960;-64
2023/03/06 13:20:48;;;;;;;;;;;25.60;99.90;;;;;;5043600;28;19913;-62
2023/03/06 13:23:38;;;;;;;;;;;25.60;99.90;;;;;;5043165;28;20129;-64
2023/03/06 13:26:10;;;;;;;;;;;25.50;99.90;;;;;;5043587;28;19909;-64
2023/03/06 13:28:45;;;;;;;;;;;25.50;99.90;;;;;;5043475;28;20047;-64
2023/03/06 13:31:12;;;;;;;;;;;25.40;99.90;;;;;;5043683;28;19935;-70
2023/03/06 13:33:38;;;;;;;;;;;25.40;99.90;;;;;;5042799;28;19905;-65
2023/03/06 13:36:22;;;;;;;;;;;25.40;99.90;;;;;;5044346;28;19991;-63
2023/03/06 13:38:49;;;;;;;;;;;25.40;99.90;;;;;;5042709;28;19921;-63
2023/03/06 13:41:31;;;;;;;;;;;25.40;99.90;;;;;;5043548;28;20435;-63
2023/03/06 13:43:59;;;;;;;;;;;25.40;99.90;;;;;;5042723;28;19928;-61
2023/03/06 13:46:28;;;;;;;;;;;25.40;99.90;;;;;;5043874;28;20645;-63
2023/03/06 13:49:07;;;;;;;;;;;25.30;99.90;;;;;;5042637;28;19924;-64
2023/03/06 13:51:35;;;;;;;;;;;25.30;99.90;;;;;;5043017;28;19923;-64
2023/03/06 13:54:08;;;;;;;;;;;25.30;99.90;;;;;;5043082;28;19924;-63
2023/03/06 13:56:52;;;;;;;;;;;25.30;99.90;;;;;;5043479;28;19909;-66
2023/03/06 13:59:32;;;;;;;;;;;25.20;99.90;;;;;;5043502;28;19963;-65
2023/03/06 14:02:04;;;;;;;;;;;25.20;99.90;;;;;;5041734;28;20305;-65
2023/03/06 14:04:31;;;;;;;;;;;25.10;99.90;;;;;;5043434;28;19909;-64
2023/03/06 14:07:02;;;;;;;;;;;25.20;99.90;;;;;;5042127;28;20038;-62
2023/03/06 14:09:34;;;;;;;;;;;25.10;99.90;;;;;;5042707;28;19919;-61
2023/03/06 14:12:14;;;;;;;;;;;25.00;99.90;;;;;;5042206;28;19919;-63
2023/03/06 14:14:42;;;;;;;;;;;24.90;99.90;;;;;;5042688;28;19909;-66
2023/03/06 14:17:22;;;;;;;;;;;24.90;99.90;;;;;;5043202;28;19974;-65
2023/03/06 14:19:49;;;;;;;;;;;24.80;99.90;;;;;;5041903;28;19913;-69
2023/03/06 14:22:22;;;;;;;;;;;24.80;99.90;;;;;;5042712;28;19917;-65
2023/03/06 14:24:53;;;;;;;;;;;24.80;99.90;;;;;;5041940;28;19909;-64
2023/03/06 14:27:20;;;;;;;;;;;24.80;99.90;;;;;;5042904;28;19916;-63
2023/03/06 14:29:47;;;;;;;;;;;24.70;99.90;;;;;;5042043;28;20127;-69